Time;durP1;ratioP1;P1;durP2;ratioP2;P2;SDS_P1;SDS_P2;PMS_P1;PMS_P2;Temp;Humidity;BMP_temperature;BMP_pressure;BME280_temperature;BME280_humidity;BME280_pressure;Samples;Min_cycle;Max_cycle;Signal;HPM_P1;HPM_P2
2022/03/24 00:02:01;;;;;;;48.63;26.85;;;;;;;8.37;54.17;102857.59;5078957;28;20028;-84
2022/03/24 00:04:26;;;;;;;48.97;25.85;;;;;;;8.23;55.25;102867.22;5077534;28;20032;-84
2022/03/24 00:06:52;;;;;;;46.28;24.70;;;;;;;8.11;55.24;102863.69;5079275;28;20459;-85
2022/03/24 00:09:17;;;;;;;46.33;26.80;;;;;;;8.10;54.99;102868.94;5081058;28;20031;-84
2022/03/24 00:11:42;;;;;;;54.92;28.65;;;;;;;7.96;54.78;102876.78;5077502;28;20768;-85
2022/03/24 00:14:08;;;;;;;54.35;27.98;;;;;;;8.02;55.64;102858.41;5079542;28;20035;-85
2022/03/24 00:16:33;;;;;;;53.65;26.90;;;;;;;8.06;55.25;102861.88;5079952;28;20120;-85
2022/03/24 00:19:01;;;;;;;55.58;28.65;;;;;;;7.98;55.32;102863.66;5079639;28;20034;-84
2022/03/24 00:21:27;;;;;;;54.50;28.42;;;;;;;7.85;55.38;102860.97;5080873;28;20087;-85
2022/03/24 00:23:52;;;;;;;52.88;27.23;;;;;;;7.83;55.83;102853.91;5077060;28;20629;-84
2022/03/24 00:26:18;;;;;;;52.53;27.00;;;;;;;7.80;56.56;102860.06;5075721;28;20032;-84
2022/03/24 00:28:44;;;;;;;48.30;26.23;;;;;;;7.65;56.12;102855.63;5077525;28;20139;-85
2022/03/24 00:31:10;;;;;;;49.92;25.48;;;;;;;7.74;56.08;102859.16;5079092;28;20062;-84
2022/03/24 00:33:38;;;;;;;52.28;27.50;;;;;;;7.78;55.57;102855.66;5079240;28;20082;-85
2022/03/24 00:36:04;;;;;;;59.63;29.67;;;;;;;7.79;55.96;102850.41;5083262;28;20411;-85
2022/03/24 00:38:29;;;;;;;52.95;26.65;;;;;;;7.78;55.87;102851.25;5083817;28;20046;-84
2022/03/24 00:40:55;;;;;;;51.53;26.45;;;;;;;7.80;56.18;102851.28;5083181;28;20032;-84
2022/03/24 00:43:21;;;;;;;47.60;26.58;;;;;;;7.76;56.49;102845.13;5084246;28;20040;-84
2022/03/24 00:45:46;;;;;;;49.15;27.65;;;;;;;7.74;56.44;102831.09;5083113;28;20044;-85
2022/03/24 00:48:12;;;;;;;47.47;26.38;;;;;;;7.70;56.08;102842.47;5084134;28;20391;-85
2022/03/24 00:50:37;;;;;;;49.97;27.10;;;;;;;7.65;55.59;102846.84;5082875;28;20407;-85
2022/03/24 00:53:04;;;;;;;49.55;27.75;;;;;;;7.55;56.30;102843.28;5084775;28;20047;-84
2022/03/24 00:55:30;;;;;;;53.83;28.35;;;;;;;7.29;57.13;102842.28;5079995;28;20471;-84
2022/03/24 00:57:56;;;;;;;54.67;28.80;;;;;;;7.09;57.13;102837.78;5086279;28;20032;-85
2022/03/24 01:00:25;;;;;;;55.45;27.58;;;;;;;7.19;57.48;102846.59;5080803;28;20028;-85
2022/03/24 01:02:53;;;;;;;49.28;27.63;;;;;;;7.26;57.11;102837.00;5080037;28;20046;-85
2022/03/24 01:05:21;;;;;;;50.85;25.77;;;;;;;7.27;56.69;102838.75;5078733;28;20051;-84
2022/03/24 01:07:47;;;;;;;56.47;27.58;;;;;;;7.11;57.53;102841.28;5082382;28;20514;-84
2022/03/24 01:10:15;;;;;;;56.10;28.45;;;;;;;7.11;57.39;102841.28;5081899;28;20024;-85
2022/03/24 01:12:41;;;;;;;48.50;26.15;;;;;;;7.14;57.79;102836.06;5082856;28;20494;-85
2022/03/24 01:15:09;;;;;;;49.97;26.75;;;;;;;7.15;58.12;102832.56;5079453;28;20571;-85
2022/03/24 01:17:36;;;;;;;49.13;25.80;;;;;;;7.25;58.06;102824.72;5082445;28;20024;-85
2022/03/24 01:20:02;;;;;;;55.80;26.90;;;;;;;7.30;60.27;102831.75;5081992;28;20075;-84
2022/03/24 01:22:27;;;;;;;51.80;26.25;;;;;;;7.32;56.92;102823.84;5083696;28;20581;-84
2022/03/24 01:24:52;;;;;;;53.35;26.65;;;;;;;7.35;57.18;102829.16;5078837;28;20031;-84
2022/03/24 01:27:18;;;;;;;46.33;24.73;;;;;;;7.16;57.29;102826.41;5082551;28;20067;-84
2022/03/24 01:29:44;;;;;;;50.25;25.77;;;;;;;7.03;57.26;102819.31;5081865;28;20024;-84
2022/03/24 01:32:10;;;;;;;46.78;25.60;;;;;;;7.12;57.16;102827.25;5081305;28;20035;-84
2022/03/24 01:34:36;;;;;;;50.55;26.08;;;;;;;7.14;56.99;102822.03;5080159;28;20730;-85
2022/03/24 01:37:01;;;;;;;55.25;26.98;;;;;;;7.01;57.66;102818.44;5082337;28;20032;-84
2022/03/24 01:39:27;;;;;;;55.28;25.35;;;;;;;6.94;57.79;102826.28;5079937;28;20413;-84
2022/03/24 01:41:53;;;;;;;51.50;28.77;;;;;;;6.96;61.26;102814.91;5081801;28;20089;-84
2022/03/24 01:44:20;;;;;;;52.35;27.02;;;;;;;6.97;61.12;102811.41;5081739;28;20020;-85
2022/03/24 01:47:07;;;;;;;52.20;28.08;;;;;;;7.06;56.40;102818.47;5084401;28;20028;-84
2022/03/24 01:49:58;;;;;;;48.03;25.90;;;;;;;6.94;56.37;102807.84;5081395;28;20028;-84
2022/03/24 01:52:25;;;;;;;53.70;27.52;;;;;;;6.61;58.23;102797.13;5082289;28;20415;-84
2022/03/24 01:54:56;;;;;;;55.53;27.77;;;;;;;6.53;58.13;102798.81;5078272;28;20020;-85
2022/03/24 01:57:21;;;;;;;49.70;25.58;;;;;;;6.59;58.72;102801.50;5080490;28;20035;-85
2022/03/24 01:59:51;;;;;;;46.10;25.15;;;;;;;6.66;58.67;102797.16;5079780;28;20038;-84
2022/03/24 02:02:17;;;;;;;51.53;27.52;;;;;;;6.72;62.59;102799.84;5081369;28;20028;-85
2022/03/24 02:04:43;;;;;;;56.33;29.10;;;;;;;6.71;61.92;102791.94;5081933;28;20008;-84
2022/03/24 02:07:10;;;;;;;50.63;28.52;;;;;;;6.71;58.50;102800.69;5082400;28;20035;-84
2022/03/24 02:09:37;;;;;;;51.33;26.15;;;;;;;6.53;58.17;102783.06;5080755;28;20028;-84
2022/03/24 02:12:08;;;;;;;60.95;28.92;;;;;;;6.30;59.75;102787.25;5081425;28;20056;-85
2022/03/24 02:14:34;;;;;;;47.47;24.15;;;;;;;6.26;59.09;102788.09;5075244;28;20523;-85
2022/03/24 02:16:59;;;;;;;54.05;26.23;;;;;;;6.25;59.04;102792.47;5080914;28;20024;-84
2022/03/24 02:19:26;;;;;;;46.20;27.30;;;;;;;6.11;58.58;102781.81;5083466;28;20035;-84
2022/03/24 02:21:54;;;;;;;57.45;27.35;;;;;;;6.10;59.30;102790.53;5082068;28;20020;-84
2022/03/24 02:24:22;;;;;;;49.20;25.80;;;;;;;6.19;58.90;102789.75;5081700;28;20469;-84
2022/03/24 02:26:48;;;;;;;47.15;25.90;;;;;;;6.26;59.02;102788.09;5079975;28;20458;-85
2022/03/24 02:29:15;;;;;;;58.92;25.60;;;;;;;6.25;58.92;102795.09;5078940;28;20039;-84
2022/03/24 02:31:47;;;;;;;46.17;24.70;;;;;;;6.33;58.99;102797.75;5081980;28;20499;-84
2022/03/24 02:37:00;;;;;;;52.22;25.80;;;;;;;6.26;58.91;102791.59;5081035;28;20079;-84
2022/03/24 02:39:26;;;;;;;48.78;27.02;;;;;;;6.29;61.28;102796.84;5082589;28;20491;-84
2022/03/24 02:41:57;;;;;;;49.53;26.23;;;;;;;6.23;58.98;102793.28;5082701;28;20430;-85
2022/03/24 02:44:25;;;;;;;52.60;26.50;;;;;;;6.05;59.26;102797.50;5077422;28;20024;-85
2022/03/24 02:46:53;;;;;;;51.50;24.55;;;;;;;5.88;59.92;102794.69;5075542;28;20042;-84
2022/03/24 02:49:20;;;;;;;51.63;26.05;;;;;;;5.94;59.33;102804.41;5080419;28;20076;-84
2022/03/24 02:51:46;;;;;;;50.22;25.17;;;;;;;6.01;60.79;102797.44;5079724;28;20422;-84
2022/03/24 02:54:13;;;;;;;46.25;25.23;;;;;;;6.01;59.53;102790.44;5078463;28;20032;-84
2022/03/24 02:56:42;;;;;;;51.10;25.33;;;;;;;5.96;59.91;102791.28;5079982;28;20032;-84
2022/03/24 02:59:08;;;;;;;56.65;29.30;;;;;;;5.52;60.24;102789.88;5077740;28;20455;-84
2022/03/24 03:01:33;;;;;;;47.95;24.77;;;;;;;5.42;61.50;102785.41;5079954;28;20034;-84
2022/03/24 03:03:59;;;;;;;50.85;26.38;;;;;;;5.49;60.51;102797.72;5082325;28;20033;-84
2022/03/24 03:06:25;;;;;;;54.83;27.48;;;;;;;5.13;62.06;102790.28;5080316;28;20044;-84
2022/03/24 03:08:51;;;;;;;48.50;23.92;;;;;;;5.17;61.83;102806.91;5081167;28;20073;-84
2022/03/24 03:11:17;;;;;;;50.90;26.63;;;;;;;5.15;61.67;102796.41;5081949;28;20425;-84
2022/03/24 03:13:45;;;;;;;56.72;27.17;;;;;;;5.22;61.54;102789.50;5078801;28;20254;-84
2022/03/24 03:16:11;;;;;;;51.15;25.92;;;;;;;5.29;60.55;102791.34;5079087;28;20551;-85
2022/03/24 03:18:37;;;;;;;52.53;25.08;;;;;;;5.26;61.31;102789.56;5082690;28;20057;-84
2022/03/24 03:21:03;;;;;;;48.95;25.15;;;;;;;5.44;60.97;102791.53;5079969;28;20075;-84
2022/03/24 03:23:28;;;;;;;47.83;25.73;;;;;;;5.46;60.46;102789.81;5082190;28;20122;-84
2022/03/24 03:25:56;;;;;;;60.35;27.05;;;;;;;5.36;61.38;102798.41;5078276;28;20559;-86
2022/03/24 03:28:21;;;;;;;54.72;27.67;;;;;;;5.09;61.56;102797.22;5077879;28;20068;-84
2022/03/24 03:30:47;;;;;;;50.20;24.25;;;;;;;4.97;62.12;102781.28;5079940;28;20035;-84
2022/03/24 03:33:13;;;;;;;44.72;22.50;;;;;;;5.03;62.05;102793.59;5082728;28;20802;-84
2022/03/24 03:35:38;;;;;;;43.80;23.80;;;;;;;5.18;63.85;102806.06;5079279;28;20024;-85
2022/03/24 03:38:04;;;;;;;53.15;28.17;;;;;;;4.89;63.25;102787.28;5081473;28;20552;-85
2022/03/24 03:40:29;;;;;;;47.88;25.33;;;;;;;4.64;64.24;102786.03;5081395;28;20665;-84
2022/03/24 03:42:55;;;;;;;57.35;25.75;;;;;;;4.74;63.20;102788.81;5079876;28;20036;-85
2022/03/24 03:45:21;;;;;;;48.78;25.05;;;;;;;4.93;64.30;102797.84;5078581;28;20016;-85
2022/03/24 03:47:46;;;;;;;51.78;25.45;;;;;;;4.91;62.40;102794.31;5079359;28;20028;-84
2022/03/24 03:50:12;;;;;;;49.88;25.88;;;;;;;4.74;63.10;102791.44;5081396;28;20093;-85
2022/03/24 03:52:37;;;;;;;56.00;28.73;;;;;;;4.55;63.51;102798.13;5080108;28;20032;-83
2022/03/24 03:55:04;;;;;;;55.28;26.33;;;;;;;4.33;64.64;102793.38;5079572;28;20459;-84
2022/03/24 03:57:30;;;;;;;55.70;26.10;;;;;;;4.51;65.68;102803.28;5080018;28;20139;-85
2022/03/24 03:59:55;;;;;;;48.33;25.67;;;;;;;4.61;63.40;102792.97;5081445;28;20098;-84
2022/03/24 04:02:20;;;;;;;44.15;24.80;;;;;;;4.62;62.47;102783.41;5080221;28;20042;-85
2022/03/24 04:04:46;;;;;;;54.10;26.90;;;;;;;4.56;63.37;102796.38;5077233;28;20055;-84
2022/03/24 04:07:12;;;;;;;50.63;25.70;;;;;;;4.48;63.66;102806.75;5083418;28;20043;-84
2022/03/24 04:09:38;;;;;;;58.10;27.42;;;;;;;4.57;67.44;102803.41;5081003;28;20478;-84
2022/03/24 04:12:04;;;;;;;53.30;26.38;;;;;;;4.70;65.26;102799.22;5085114;28;20081;-84
2022/03/24 04:14:29;;;;;;;51.95;27.00;;;;;;;4.66;63.84;102802.66;5079530;28;20020;-84
2022/03/24 04:16:58;;;;;;;55.78;26.67;;;;;;;4.52;63.93;102803.34;5085716;28;20044;-84
2022/03/24 04:19:25;;;;;;;50.17;27.05;;;;;;;4.48;64.02;102801.53;5083738;28;20063;-84
2022/03/24 04:21:51;;;;;;;52.40;26.90;;;;;;;4.60;68.43;102798.19;5083441;28;20066;-84
2022/03/24 04:24:16;;;;;;;56.10;26.55;;;;;;;4.67;63.06;102793.97;5080519;28;20045;-84
2022/03/24 04:26:41;;;;;;;48.72;25.30;;;;;;;4.62;63.34;102783.41;5082908;28;20444;-84
2022/03/24 04:29:07;;;;;;;55.90;25.95;;;;;;;4.65;62.69;102791.28;5083862;28;20036;-85
2022/03/24 04:31:32;;;;;;;51.50;27.35;;;;;;;4.78;66.43;102793.25;5085289;28;20039;-84
2022/03/24 04:33:57;;;;;;;51.35;25.30;;;;;;;4.80;63.04;102788.03;5082382;28;20026;-85
2022/03/24 04:36:23;;;;;;;52.53;25.25;;;;;;;4.76;63.88;102789.75;5083514;28;20476;-85
2022/03/24 04:38:48;;;;;;;56.45;28.23;;;;;;;4.84;66.03;102795.06;5083741;28;20107;-85
2022/03/24 04:41:14;;;;;;;52.95;26.80;;;;;;;4.80;62.47;102791.56;5085490;28;20422;-84
2022/03/24 04:43:40;;;;;;;55.63;26.67;;;;;;;4.70;62.99;102791.38;5083857;28;20028;-84
2022/03/24 04:46:05;;;;;;;53.33;27.10;;;;;;;4.65;62.93;102796.53;5083723;28;20057;-84
2022/03/24 04:48:35;;;;;;;56.90;27.08;;;;;;;4.65;63.51;102796.53;5085316;28;20035;-85
2022/03/24 04:51:03;;;;;;;50.13;26.92;;;;;;;4.59;63.60;102799.94;5084725;28;20414;-84
2022/03/24 04:53:29;;;;;;;49.67;25.77;;;;;;;4.50;63.51;102789.31;5083314;28;20589;-84
2022/03/24 04:55:54;;;;;;;48.42;25.00;;;;;;;4.34;64.02;102795.19;5081180;28;20040;-85
2022/03/24 04:58:20;;;;;;;49.15;24.65;;;;;;;4.24;63.95;102803.69;5083918;28;20390;-85
2022/03/24 05:00:45;;;;;;;49.72;26.05;;;;;;;4.27;64.07;102799.41;5082459;28;20120;-84
2022/03/24 05:03:10;;;;;;;51.25;25.80;;;;;;;4.40;63.68;102802.25;5082222;28;20524;-85
2022/03/24 05:05:35;;;;;;;55.67;28.17;;;;;;;4.52;67.27;102803.34;5082795;28;20026;-85
2022/03/24 05:08:01;;;;;;;53.15;25.88;;;;;;;4.53;63.93;102796.34;5081763;28;20349;-85
2022/03/24 05:10:27;;;;;;;54.33;26.90;;;;;;;4.55;67.90;102792.00;5083009;28;20040;-85
2022/03/24 05:12:52;;;;;;;57.60;29.85;;;;;;;4.58;65.95;102798.19;5083415;28;20549;-85
2022/03/24 05:15:18;;;;;;;63.15;28.40;;;;;;;4.53;63.54;102798.97;5078869;28;20480;-84
2022/03/24 05:17:43;;;;;;;57.10;28.83;;;;;;;4.51;63.58;102805.91;5084174;28;20024;-84
2022/03/24 05:20:09;;;;;;;57.28;29.50;;;;;;;4.45;63.75;102800.59;5081054;28;20117;-85
2022/03/24 05:22:37;;;;;;;57.25;26.38;;;;;;;4.42;63.90;102811.88;5081335;28;20028;-85
2022/03/24 05:25:05;;;;;;;56.88;27.20;;;;;;;4.42;64.06;102811.88;5080267;28;20057;-85
2022/03/24 05:27:31;;;;;;;55.50;27.63;;;;;;;4.29;64.99;102802.94;5082920;28;20034;-85
2022/03/24 05:29:56;;;;;;;56.03;27.77;;;;;;;4.31;64.18;102814.31;5081512;28;20058;-84
2022/03/24 05:32:22;;;;;;;57.95;27.35;;;;;;;4.30;64.35;102807.31;5084368;28;20394;-85
2022/03/24 05:34:48;;;;;;;51.15;26.90;;;;;;;4.34;64.50;102818.75;5080556;28;20028;-84
2022/03/24 05:37:14;;;;;;;53.55;26.30;;;;;;;4.30;64.16;102806.44;5084255;28;20736;-84
2022/03/24 05:39:41;;;;;;;52.90;26.38;;;;;;;4.32;64.21;102808.22;5080548;28;20066;-85
2022/03/24 05:42:07;;;;;;;54.42;27.30;;;;;;;4.34;64.54;102806.53;5085338;28;20492;-84
2022/03/24 05:44:32;;;;;;;51.35;26.63;;;;;;;4.31;65.11;102818.69;5083740;28;20024;-85
2022/03/24 05:46:59;;;;;;;57.03;26.45;;;;;;;4.17;65.40;102815.81;5081194;28;20434;-85
2022/03/24 05:49:26;;;;;;;52.83;25.75;;;;;;;4.09;65.16;102806.94;5081779;28;20045;-85
2022/03/24 05:51:52;;;;;;;55.33;26.38;;;;;;;4.16;65.35;102827.16;5084057;28;20144;-84
2022/03/24 05:54:17;;;;;;;52.88;26.98;;;;;;;4.11;65.64;102827.91;5080377;28;20039;-84
2022/03/24 05:56:47;;;;;;;62.28;29.10;;;;;;;4.08;65.31;102823.50;5082348;28;20032;-85
2022/03/24 05:59:13;;;;;;;52.33;25.88;;;;;;;4.13;65.67;102821.84;5082217;28;20077;-85
2022/03/24 06:01:40;;;;;;;57.75;28.08;;;;;;;4.05;66.25;102821.69;5079473;28;20016;-84
2022/03/24 06:04:07;;;;;;;58.63;29.83;;;;;;;4.06;65.79;102819.97;5083140;28;20422;-84
2022/03/24 06:06:34;;;;;;;57.10;27.05;;;;;;;4.08;66.00;102826.13;5084094;28;20496;-85
2022/03/24 06:09:03;;;;;;;59.17;29.13;;;;;;;4.11;66.31;102831.41;5081534;28;20121;-84
2022/03/24 06:11:30;;;;;;;58.13;30.65;;;;;;;4.02;66.41;102832.13;5081634;28;20111;-85
2022/03/24 06:13:55;;;;;;;60.85;30.30;;;;;;;4.02;66.28;102832.13;5081739;28;20442;-85
2022/03/24 06:16:21;;;;;;;50.08;26.50;;;;;;;4.12;66.95;102841.03;5071781;28;20024;-84
2022/03/24 06:18:47;;;;;;;54.00;27.55;;;;;;;4.06;67.52;102833.06;5079755;28;20032;-84
2022/03/24 06:21:14;;;;;;;58.38;27.00;;;;;;;4.17;66.58;102831.50;5080075;28;20618;-85
2022/03/24 06:23:40;;;;;;;60.40;27.55;;;;;;;4.23;66.58;102830.75;5081176;28;20403;-85
2022/03/24 06:26:05;;;;;;;60.35;30.63;;;;;;;4.09;67.17;102836.59;5079046;28;20034;-84
2022/03/24 06:28:30;;;;;;;65.15;30.10;;;;;;;4.03;67.49;102841.72;5079612;28;20495;-85
2022/03/24 06:30:56;;;;;;;56.92;28.65;;;;;;;4.20;67.32;102841.19;5080412;28;20036;-85
2022/03/24 06:33:21;;;;;;;52.65;27.67;;;;;;;4.33;66.71;102840.50;5079668;28;20103;-84
2022/03/24 06:35:48;;;;;;;61.15;31.63;;;;;;;4.44;66.75;102832.88;5082662;28;20020;-84
2022/03/24 06:38:14;;;;;;;60.65;28.95;;;;;;;4.59;66.37;102839.25;5082642;28;20796;-85
2022/03/24 06:40:43;;;;;;;70.80;30.58;;;;;;;4.73;66.74;102846.44;5083280;28;20048;-85
2022/03/24 06:43:12;;;;;;;63.45;30.35;;;;;;;4.78;66.50;102848.28;5078417;28;20097;-84
2022/03/24 06:45:38;;;;;;;58.30;30.42;;;;;;;4.89;66.43;102847.56;5080980;28;20027;-84
2022/03/24 06:48:07;;;;;;;72.32;33.25;;;;;;;4.94;65.63;102843.28;5081605;28;20036;-84
2022/03/24 06:50:34;;;;;;;64.10;32.95;;;;;;;5.08;65.22;102837.41;5083451;28;20031;-85
2022/03/24 06:52:59;;;;;;;69.13;32.67;;;;;;;5.17;65.68;102838.38;5079875;28;20039;-85
2022/03/24 06:55:24;;;;;;;70.93;33.92;;;;;;;5.20;66.43;102844.53;5079270;28;20312;-85
2022/03/24 06:57:50;;;;;;;76.18;35.28;;;;;;;5.22;66.57;102836.69;5081000;28;20475;-85
2022/03/24 07:00:15;;;;;;;75.72;35.63;;;;;;;5.33;66.61;102842.97;5080417;28;20032;-85
2022/03/24 07:02:42;;;;;;;73.90;35.90;;;;;;;5.49;64.77;102836.19;5079617;28;20027;-85
2022/03/24 07:05:08;;;;;;;78.05;37.67;;;;;;;5.68;63.92;102839.91;5080212;28;20144;-85
2022/03/24 07:07:33;;;;;;;76.32;36.97;;;;;;;5.78;63.54;102839.16;5081932;28;20441;-85
2022/03/24 07:09:59;;;;;;;73.47;37.85;;;;;;;5.92;63.02;102840.22;5081827;28;20027;-85
2022/03/24 07:12:24;;;;;;;80.50;39.40;;;;;;;6.02;63.87;102833.38;5078001;28;20042;-85
2022/03/24 07:14:50;;;;;;;75.18;35.67;;;;;;;6.24;62.65;102851.09;5081010;28;20020;-85
2022/03/24 07:17:17;;;;;;;78.60;39.92;;;;;;;6.28;63.18;102838.88;5078059;28;20124;-85
2022/03/24 07:19:43;;;;;;;88.07;39.70;;;;;;;6.43;63.80;102853.88;5077561;28;20040;-85
2022/03/24 07:22:08;;;;;;;85.05;39.45;;;;;;;6.49;63.47;102839.06;5080035;28;20046;-85
2022/03/24 07:24:34;;;;;;;75.30;39.45;;;;;;;6.72;62.94;102847.16;5078602;28;20027;-85
2022/03/24 07:26:59;;;;;;;79.57;36.60;;;;;;;6.85;63.71;102848.09;5080437;28;20036;-85
2022/03/24 07:29:24;;;;;;;74.32;38.33;;;;;;;6.94;62.78;102845.56;5081146;28;20100;-85
2022/03/24 07:31:50;;;;;;;76.88;38.10;;;;;;;7.09;61.88;102852.69;5080632;28;20450;-85
2022/03/24 07:34:16;;;;;;;80.28;37.92;;;;;;;7.26;61.51;102855.41;5078772;28;20027;-84
2022/03/24 07:36:42;;;;;;;60.17;31.05;;;;;;;7.46;59.08;102858.13;5079856;28;20298;-85
2022/03/24 07:39:08;;;;;;;67.75;35.33;;;;;;;7.66;60.29;102846.84;5079034;28;20051;-85
2022/03/24 07:41:34;;;;;;;67.88;35.22;;;;;;;7.90;60.00;102853.06;5081548;28;20040;-84
2022/03/24 07:43:59;;;;;;;69.55;34.47;;;;;;;8.13;58.99;102859.28;5075368;28;20031;-85
2022/03/24 07:46:24;;;;;;;63.15;32.15;;;;;;;8.30;58.28;102850.53;5079457;28;20254;-85
2022/03/24 07:48:50;;;;;;;65.10;32.75;;;;;;;8.51;57.17;102857.63;5077607;28;20019;-85
2022/03/24 07:51:16;;;;;;;64.05;32.70;;;;;;;8.74;56.34;102850.59;5081640;28;20067;-85
2022/03/24 07:53:48;;;;;;;62.20;32.75;;;;;;;8.96;56.07;102861.16;5079259;28;20090;-85
2022/03/24 07:56:15;;;;;;;65.32;34.75;;;;;;;9.14;56.31;102861.13;5079150;28;20070;-85
2022/03/24 07:58:40;;;;;;;65.72;34.47;;;;;;;9.40;54.75;102864.56;5079506;28;20028;-85
2022/03/24 08:01:06;;;;;;;56.03;31.33;;;;;;;9.76;53.28;102861.81;5078026;28;20434;-86
2022/03/24 08:03:32;;;;;;;66.03;33.28;;;;;;;10.16;53.26;102867.75;5081053;28;20529;-86
2022/03/24 08:05:57;;;;;;;56.60;31.70;;;;;;;10.52;51.50;102863.16;5080830;28;20028;-85
2022/03/24 08:08:23;;;;;;;60.70;31.30;;;;;;;10.86;49.81;102859.31;5079687;28;20387;-85
2022/03/24 08:10:50;;;;;;;56.92;31.13;;;;;;;11.22;49.86;102863.38;5080102;28;20027;-86
2022/03/24 08:13:17;;;;;;;62.40;32.05;;;;;;;11.45;49.22;102863.13;5080285;28;20040;-86
2022/03/24 08:15:43;;;;;;;64.03;32.80;;;;;;;11.78;49.45;102868.06;5081180;28;20507;-86
2022/03/24 08:18:09;;;;;;;62.25;31.33;;;;;;;12.22;48.02;102865.72;5077456;28;20505;-85
2022/03/24 08:20:36;;;;;;;62.03;32.47;;;;;;;12.56;47.33;102859.88;5078752;28;20032;-85
2022/03/24 08:23:03;;;;;;;51.65;30.67;;;;;;;12.77;44.91;102864.81;5080415;28;20051;-85
2022/03/24 08:25:29;;;;;;;54.10;29.00;;;;;;;13.03;44.05;102872.34;5079942;28;20016;-85
2022/03/24 08:27:55;;;;;;;49.63;27.88;;;;;;;13.32;40.57;102865.66;5074961;28;20032;-85
2022/03/24 08:30:21;;;;;;;51.65;28.27;;;;;;;13.58;40.37;102873.13;5079627;28;20046;-85
2022/03/24 08:32:46;;;;;;;47.47;28.70;;;;;;;13.55;37.66;102867.84;5079536;28;20024;-86
2022/03/24 08:35:11;;;;;;;48.88;26.95;;;;;;;13.61;37.14;102874.81;5078182;28;20921;-85
2022/03/24 08:37:37;;;;;;;46.75;26.80;;;;;;;14.00;37.88;102871.34;5080846;28;20020;-85
2022/03/24 08:40:04;;;;;;;48.92;27.92;;;;;;;14.50;38.04;102877.31;5079884;28;20060;-85
2022/03/24 08:42:29;;;;;;;48.75;28.55;;;;;;;15.06;39.05;102874.13;5077410;28;20088;-86
2022/03/24 08:44:55;;;;;;;51.83;29.77;;;;;;;15.57;36.83;102876.25;5081329;28;20028;-86
2022/03/24 08:47:20;;;;;;;56.03;28.55;;;;;;;16.04;36.71;102872.25;5077739;28;21457;-86
2022/03/24 08:49:45;;;;;;;44.72;25.92;;;;;;;16.44;35.15;102868.31;5081353;28;20032;-87
2022/03/24 08:52:12;;;;;;;44.65;27.48;;;;;;;16.87;33.81;102868.72;5081457;28;20021;-87
2022/03/24 08:54:37;;;;;;;42.38;26.15;;;;;;;17.25;31.86;102868.28;5082943;28;20524;-86
2022/03/24 08:57:03;;;;;;;48.67;29.10;;;;;;;17.65;31.76;102873.94;5081975;28;20032;-86
2022/03/24 08:59:28;;;;;;;49.88;27.95;;;;;;;18.09;31.88;102875.84;5082727;28;20028;-86
2022/03/24 09:01:53;;;;;;;48.17;28.85;;;;;;;18.36;31.48;102865.81;5077530;28;20719;-86
2022/03/24 09:04:20;;;;;;;48.05;26.55;;;;;;;18.74;29.90;102867.88;5082031;28;20050;-86
2022/03/24 09:06:46;;;;;;;49.08;29.25;;;;;;;19.29;30.37;102871.72;5082035;28;20506;-86
2022/03/24 09:09:12;;;;;;;48.35;29.40;;;;;;;19.54;28.37;102876.88;5082117;28;20024;-86
2022/03/24 09:11:37;;;;;;;40.22;25.60;;;;;;;19.77;27.83;102878.53;5082098;28;20598;-86
2022/03/24 09:14:03;;;;;;;40.40;26.13;;;;;;;19.96;27.41;102874.94;5081029;28;20020;-86
2022/03/24 09:16:28;;;;;;;36.40;25.33;;;;;;;20.50;27.52;102878.63;5082532;28;20020;-87
2022/03/24 09:18:53;;;;;;;35.08;24.55;;;;;;;21.04;26.25;102879.50;5081561;28;20372;-87
2022/03/24 09:21:19;;;;;;;38.78;24.70;;;;;;;21.70;25.34;102876.88;5080743;28;20024;-87
2022/03/24 09:23:45;;;;;;;40.63;25.42;;;;;;;22.15;24.15;102878.00;5078666;28;20024;-87
2022/03/24 09:26:12;;;;;;;42.15;23.27;;;;;;;22.65;23.78;102880.44;5076753;28;20151;-87
2022/03/24 09:28:37;;;;;;;36.40;23.83;;;;;;;22.94;22.43;102880.56;5080857;28;20028;-86
2022/03/24 09:31:02;;;;;;;37.88;24.52;;;;;;;23.26;22.35;102889.41;5082198;28;20267;-87
2022/03/24 09:33:28;;;;;;;33.55;24.70;;;;;;;23.64;21.99;102887.09;5081133;28;20110;-87
2022/03/24 09:35:53;;;;;;;36.30;24.85;;;;;;;24.37;22.18;102881.47;5081450;28;20031;-87
2022/03/24 09:38:19;;;;;;;32.95;23.30;;;;;;;25.08;20.53;102882.13;5078879;28;20115;-88
2022/03/24 09:40:45;;;;;;;34.92;23.52;;;;;;;25.58;19.08;102875.84;5082366;28;20291;-88
2022/03/24 09:43:13;;;;;;;37.88;23.23;;;;;;;26.23;18.89;102882.88;5082411;28;20028;-88
2022/03/24 09:45:41;;;;;;;27.98;20.35;;;;;;;26.58;16.83;102873.97;5082302;28;20105;-88
2022/03/24 09:48:07;;;;;;;29.55;20.33;;;;;;;27.17;17.63;102882.09;5079940;28;20547;-89
2022/03/24 09:50:36;;;;;;;29.35;20.63;;;;;;;27.56;17.14;102891.66;5081866;28;20138;-89
2022/03/24 09:53:03;;;;;;;36.40;22.90;;;;;;;27.71;16.40;102881.41;5083208;28;20023;-89
2022/03/24 09:55:32;;;;;;;28.20;20.67;;;;;;;28.00;15.77;102880.91;5084710;28;20059;-89
2022/03/24 09:57:59;;;;;;;24.98;19.88;;;;;;;28.32;15.86;102886.41;5079538;28;20032;-89
2022/03/24 10:00:25;;;;;;;29.85;22.77;;;;;;;28.67;15.38;102870.69;5081063;28;20459;-89
2022/03/24 10:03:06;;;;;;;33.38;23.05;;;;;;;28.76;17.65;102874.50;5081324;28;20062;-89
2022/03/24 10:05:31;;;;;;;28.52;21.27;;;;;;;29.37;15.28;102881.94;5077348;28;20135;-89
2022/03/24 10:08:04;;;;;;;27.33;21.20;;;;;;;29.96;16.53;102881.22;5081394;28;20149;-89
2022/03/24 10:10:34;;;;;;;26.95;20.75;;;;;;;30.67;14.32;102883.78;5082327;28;20106;-90
2022/03/24 10:13:00;;;;;;;27.67;20.25;;;;;;;30.66;13.22;102869.28;5082495;28;20024;-88
2022/03/24 10:15:25;;;;;;;24.73;19.50;;;;;;;30.52;12.25;102882.50;5080338;28;20034;-89
2022/03/24 10:17:53;;;;;;;24.52;21.17;;;;;;;30.38;12.85;102870.13;5079078;28;20027;-88
2022/03/24 10:20:20;;;;;;;25.77;19.48;;;;;;;30.73;13.12;102875.94;5080764;28;20101;-88
2022/03/24 10:22:57;;;;;;;25.95;19.88;;;;;;;31.48;14.43;102870.63;5082917;28;20060;-90
2022/03/24 10:25:30;;;;;;;24.92;21.20;;;;;;;31.28;10.87;102866.22;5080436;28;20028;-89
2022/03/24 10:28:06;;;;;;;25.67;21.15;;;;;;;31.77;13.36;102867.75;5082734;28;20043;-89
2022/03/24 10:30:45;;;;;;;28.52;23.23;;;;;;;32.11;13.30;102872.59;5082408;28;20475;-89
2022/03/24 10:33:34;;;;;;;27.08;21.13;;;;;;;32.47;14.03;102873.53;5081184;28;20031;-89
2022/03/24 10:36:19;;;;;;;28.50;21.42;;;;;;;33.00;13.76;102865.25;5082921;28;20047;-88
2022/03/24 10:38:46;;;;;;;25.85;22.92;;;;;;;32.53;11.76;102861.09;5079845;28;20044;-89
2022/03/24 10:41:12;;;;;;;27.10;21.40;;;;;;;32.54;12.08;102869.13;5080820;28;20135;-90
2022/03/24 10:43:38;;;;;;;25.90;19.98;;;;;;;32.67;11.71;102871.47;5081122;28;20493;-89
2022/03/24 10:46:18;;;;;;;27.90;21.98;;;;;;;32.73;12.87;102868.09;5080685;28;20024;-89
2022/03/24 10:48:44;;;;;;;28.40;21.60;;;;;;;32.37;11.91;102848.97;5083381;28;20038;-88
2022/03/24 10:51:10;;;;;;;26.70;20.95;;;;;;;31.67;11.05;102858.72;5083403;28;20494;-88
2022/03/24 10:53:41;;;;;;;28.65;21.35;;;;;;;31.11;12.66;102854.16;5083014;28;20023;-88
2022/03/24 10:56:28;;;;;;;31.33;21.33;;;;;;;30.85;12.52;102854.78;5080348;28;20818;-89
2022/03/24 10:59:02;;;;;;;27.58;19.73;;;;;;;30.64;13.11;102851.34;5078259;28;20043;-88
2022/03/24 11:01:29;;;;;;;25.60;20.42;;;;;;;30.69;12.87;102859.94;5082204;28;20110;-89
2022/03/24 11:03:55;;;;;;;28.42;21.38;;;;;;;30.96;13.88;102851.91;5079468;28;20068;-89
2022/03/24 11:06:22;;;;;;;28.55;20.08;;;;;;;30.80;13.36;102862.53;5078460;28;20531;-88
2022/03/24 11:08:53;;;;;;;24.00;15.82;;;;;;;30.40;13.78;102851.75;5080102;28;20085;-89
2022/03/24 11:11:19;;;;;;;25.70;16.00;;;;;;;30.21;12.39;102850.72;5083464;28;20028;-89
2022/03/24 11:13:59;;;;;;;24.95;16.42;;;;;;;30.39;14.37;102863.66;5082233;28;20023;-88
2022/03/24 11:16:30;;;;;;;24.55;16.75;;;;;;;30.02;12.33;102857.97;5081340;28;20032;-88